sensor_id;sensor_type;location;lat;lon;timestamp;pressure;altitude;pressure_sealevel;temperature;humidity
20455;BME280;10386;54.314;10.022;2023-11-21T00:01:23;101313.47;;;8.52;100.00
20455;BME280;10386;54.314;10.022;2023-11-21T00:03:50;101315.75;;;8.59;100.00
20455;BME280;10386;54.314;10.022;2023-11-21T00:06:21;101323.50;;;8.50;100.00
20455;BME280;10386;54.314;10.022;2023-11-21T00:08:48;101320.78;;;8.50;100.00
20455;BME280;10386;54.314;10.022;2023-11-21T00:11:14;101321.59;;;8.52;100.00
20455;BME280;10386;54.314;10.022;2023-11-21T00:13:41;101329.78;;;8.50;100.00
20455;BME280;10386;54.314;10.022;2023-11-21T00:16:08;101325.16;;;8.52;100.00
20455;BME280;10386;54.314;10.022;2023-11-21T00:18:35;101333.00;;;8.41;100.00
20455;BME280;10386;54.314;10.022;2023-11-21T00:21:02;101334.19;;;8.53;100.00
20455;BME280;10386;54.314;10.022;2023-11-21T00:23:30;101340.44;;;8.53;100.00
20455;BME280;10386;54.314;10.022;2023-11-21T00:25:56;101345.75;;;8.39;100.00
20455;BME280;10386;54.314;10.022;2023-11-21T00:28:24;101349.00;;;8.29;100.00
20455;BME280;10386;54.314;10.022;2023-11-21T00:30:52;101347.56;;;8.39;100.00
20455;BME280;10386;54.314;10.022;2023-11-21T00:33:19;101353.47;;;8.30;100.00
20455;BME280;10386;54.314;10.022;2023-11-21T00:35:46;101361.34;;;8.34;100.00
20455;BME280;10386;54.314;10.022;2023-11-21T00:38:13;101351.16;;;8.39;100.00
20455;BME280;10386;54.314;10.022;2023-11-21T00:40:40;101367.88;;;8.30;100.00
20455;BME280;10386;54.314;10.022;2023-11-21T00:43:06;101363.78;;;8.39;100.00
20455;BME280;10386;54.314;10.022;2023-11-21T00:45:34;101359.75;;;8.30;100.00
20455;BME280;10386;54.314;10.022;2023-11-21T00:48:03;101377.47;;;8.36;100.00
20455;BME280;10386;54.314;10.022;2023-11-21T00:50:31;101373.41;;;8.44;100.00
20455;BME280;10386;54.314;10.022;2023-11-21T00:52:58;101377.00;;;8.28;100.00
20455;BME280;10386;54.314;10.022;2023-11-21T00:55:25;101381.47;;;8.29;100.00
20455;BME280;10386;54.314;10.022;2023-11-21T00:57:53;101385.44;;;8.22;100.00
20455;BME280;10386;54.314;10.022;2023-11-21T01:00:20;101386.25;;;8.24;100.00
20455;BME280;10386;54.314;10.022;2023-11-21T01:02:46;101397.53;;;8.32;100.00
20455;BME280;10386;54.314;10.022;2023-11-21T01:05:14;101395.94;;;8.28;100.00
20455;BME280;10386;54.314;10.022;2023-11-21T01:07:41;101404.16;;;8.26;100.00
20455;BME280;10386;54.314;10.022;2023-11-21T01:10:09;101411.38;;;8.26;100.00
20455;BME280;10386;54.314;10.022;2023-11-21T01:12:37;101415.44;;;8.34;100.00
20455;BME280;10386;54.314;10.022;2023-11-21T01:15:05;101419.75;;;8.38;100.00
20455;BME280;10386;54.314;10.022;2023-11-21T01:17:34;101430.72;;;8.19;100.00
20455;BME280;10386;54.314;10.022;2023-11-21T01:20:02;101434.94;;;8.24;100.00
20455;BME280;10386;54.314;10.022;2023-11-21T01:22:32;101433.56;;;8.16;100.00
20455;BME280;10386;54.314;10.022;2023-11-21T01:24:59;101448.56;;;8.23;100.00
20455;BME280;10386;54.314;10.022;2023-11-21T01:27:26;101445.41;;;8.13;100.00
20455;BME280;10386;54.314;10.022;2023-11-21T01:29:53;101450.03;;;8.28;100.00
20455;BME280;10386;54.314;10.022;2023-11-21T01:32:20;101449.50;;;8.22;100.00
20455;BME280;10386;54.314;10.022;2023-11-21T01:34:47;101453.97;;;8.23;100.00
20455;BME280;10386;54.314;10.022;2023-11-21T01:37:14;101458.56;;;8.21;100.00
20455;BME280;10386;54.314;10.022;2023-11-21T01:39:41;101464.00;;;8.02;100.00
20455;BME280;10386;54.314;10.022;2023-11-21T01:42:08;101456.69;;;8.04;100.00
20455;BME280;10386;54.314;10.022;2023-11-21T01:44:35;101460.97;;;7.91;100.00
20455;BME280;10386;54.314;10.022;2023-11-21T01:47:02;101467.19;;;7.93;100.00
20455;BME280;10386;54.314;10.022;2023-11-21T01:49:35;101453.09;;;8.04;100.00
20455;BME280;10386;54.314;10.022;2023-11-21T01:52:03;101456.88;;;7.83;100.00
20455;BME280;10386;54.314;10.022;2023-11-21T01:54:31;101461.97;;;7.89;100.00
20455;BME280;10386;54.314;10.022;2023-11-21T01:56:59;101459.84;;;7.78;100.00
20455;BME280;10386;54.314;10.022;2023-11-21T01:59:36;101452.75;;;7.93;100.00
20455;BME280;10386;54.314;10.022;2023-11-21T02:02:07;101454.66;;;7.91;100.00
20455;BME280;10386;54.314;10.022;2023-11-21T02:04:34;101453.56;;;7.95;100.00
20455;BME280;10386;54.314;10.022;2023-11-21T02:07:02;101446.03;;;8.01;100.00
20455;BME280;10386;54.314;10.022;2023-11-21T02:09:32;101448.78;;;8.00;100.00
20455;BME280;10386;54.314;10.022;2023-11-21T02:12:02;101452.72;;;7.94;100.00
20455;BME280;10386;54.314;10.022;2023-11-21T02:14:29;101459.22;;;7.90;100.00
20455;BME280;10386;54.314;10.022;2023-11-21T02:16:57;101461.44;;;7.82;100.00
20455;BME280;10386;54.314;10.022;2023-11-21T02:19:24;101463.25;;;7.82;100.00
20455;BME280;10386;54.314;10.022;2023-11-21T02:21:57;101462.38;;;7.81;100.00
20455;BME280;10386;54.314;10.022;2023-11-21T02:24:33;101457.63;;;7.86;100.00
20455;BME280;10386;54.314;10.022;2023-11-21T02:27:00;101454.81;;;7.88;100.00
20455;BME280;10386;54.314;10.022;2023-11-21T02:29:26;101460.06;;;7.91;100.00
20455;BME280;10386;54.314;10.022;2023-11-21T02:31:56;101449.09;;;7.94;100.00
20455;BME280;10386;54.314;10.022;2023-11-21T02:34:23;101450.97;;;7.93;100.00
20455;BME280;10386;54.314;10.022;2023-11-21T02:36:52;101447.78;;;8.02;100.00
20455;BME280;10386;54.314;10.022;2023-11-21T02:39:18;101452.13;;;7.88;100.00
20455;BME280;10386;54.314;10.022;2023-11-21T02:41:48;101451.97;;;7.91;100.00
20455;BME280;10386;54.314;10.022;2023-11-21T02:44:15;101444.09;;;7.86;100.00
20455;BME280;10386;54.314;10.022;2023-11-21T02:46:42;101437.59;;;7.90;100.00
20455;BME280;10386;54.314;10.022;2023-11-21T02:49:09;101432.19;;;7.90;100.00
20455;BME280;10386;54.314;10.022;2023-11-21T02:51:39;101440.75;;;7.81;100.00
20455;BME280;10386;54.314;10.022;2023-11-21T02:54:06;101442.41;;;7.84;100.00
20455;BME280;10386;54.314;10.022;2023-11-21T02:56:34;101445.38;;;7.79;100.00
20455;BME280;10386;54.314;10.022;2023-11-21T02:59:01;101432.81;;;7.95;100.00
20455;BME280;10386;54.314;10.022;2023-11-21T03:01:28;101439.56;;;8.04;100.00
20455;BME280;10386;54.314;10.022;2023-11-21T03:03:55;101442.44;;;8.01;100.00
20455;BME280;10386;54.314;10.022;2023-11-21T03:06:24;101451.16;;;7.89;100.00
20455;BME280;10386;54.314;10.022;2023-11-21T03:08:51;101446.09;;;8.00;100.00
20455;BME280;10386;54.314;10.022;2023-11-21T03:11:18;101453.50;;;7.96;100.00
20455;BME280;10386;54.314;10.022;2023-11-21T03:13:45;101460.31;;;7.86;100.00
20455;BME280;10386;54.314;10.022;2023-11-21T03:16:14;101469.59;;;7.81;100.00
20455;BME280;10386;54.314;10.022;2023-11-21T03:18:41;101455.28;;;7.79;100.00
20455;BME280;10386;54.314;10.022;2023-11-21T03:21:08;101467.31;;;7.73;100.00
20455;BME280;10386;54.314;10.022;2023-11-21T03:23:36;101466.41;;;7.73;100.00
20455;BME280;10386;54.314;10.022;2023-11-21T03:26:03;101466.25;;;7.76;100.00
20455;BME280;10386;54.314;10.022;2023-11-21T03:28:30;101465.47;;;7.74;100.00
20455;BME280;10386;54.314;10.022;2023-11-21T03:30:57;101467.44;;;7.70;100.00
20455;BME280;10386;54.314;10.022;2023-11-21T03:33:24;101465.69;;;7.69;100.00
20455;BME280;10386;54.314;10.022;2023-11-21T03:35:50;101465.00;;;7.83;100.00
20455;BME280;10386;54.314;10.022;2023-11-21T03:38:19;101462.44;;;7.80;100.00
20455;BME280;10386;54.314;10.022;2023-11-21T03:40:46;101467.78;;;7.81;100.00
20455;BME280;10386;54.314;10.022;2023-11-21T03:43:14;101470.41;;;7.83;100.00
20455;BME280;10386;54.314;10.022;2023-11-21T03:45:41;101467.69;;;7.83;100.00
20455;BME280;10386;54.314;10.022;2023-11-21T03:48:08;101462.28;;;7.83;100.00
20455;BME280;10386;54.314;10.022;2023-11-21T03:50:35;101472.25;;;7.82;100.00
20455;BME280;10386;54.314;10.022;2023-11-21T03:53:02;101469.09;;;7.91;100.00
20455;BME280;10386;54.314;10.022;2023-11-21T03:55:30;101467.47;;;7.87;100.00
20455;BME280;10386;54.314;10.022;2023-11-21T03:57:58;101471.94;;;7.88;100.00
20455;BME280;10386;54.314;10.022;2023-11-21T04:00:25;101462.94;;;8.05;100.00
20455;BME280;10386;54.314;10.022;2023-11-21T04:02:55;101471.31;;;8.00;100.00
20455;BME280;10386;54.314;10.022;2023-11-21T04:05:22;101474.56;;;8.07;100.00
20455;BME280;10386;54.314;10.022;2023-11-21T04:07:50;101473.72;;;8.06;100.00
20455;BME280;10386;54.314;10.022;2023-11-21T04:10:20;101480.56;;;8.13;100.00
20455;BME280;10386;54.314;10.022;2023-11-21T04:12:47;101496.72;;;8.15;100.00
20455;BME280;10386;54.314;10.022;2023-11-21T04:15:15;101503.13;;;8.12;100.00
20455;BME280;10386;54.314;10.022;2023-11-21T04:17:42;101505.56;;;8.00;100.00
20455;BME280;10386;54.314;10.022;2023-11-21T04:20:09;101513.25;;;8.09;100.00
20455;BME280;10386;54.314;10.022;2023-11-21T04:22:40;101513.47;;;8.04;100.00
20455;BME280;10386;54.314;10.022;2023-11-21T04:25:09;101519.22;;;8.15;100.00
20455;BME280;10386;54.314;10.022;2023-11-21T04:27:42;101527.00;;;8.04;100.00
20455;BME280;10386;54.314;10.022;2023-11-21T04:30:12;101536.34;;;8.16;100.00
20455;BME280;10386;54.314;10.022;2023-11-21T04:32:39;101536.91;;;8.04;100.00
20455;BME280;10386;54.314;10.022;2023-11-21T04:35:06;101542.63;;;7.98;100.00
20455;BME280;10386;54.314;10.022;2023-11-21T04:37:35;101552.28;;;8.03;100.00
20455;BME280;10386;54.314;10.022;2023-11-21T04:40:02;101551.78;;;7.95;100.00
20455;BME280;10386;54.314;10.022;2023-11-21T04:42:37;101565.00;;;8.01;100.00
20455;BME280;10386;54.314;10.022;2023-11-21T04:45:05;101569.50;;;8.01;100.00
20455;BME280;10386;54.314;10.022;2023-11-21T04:47:36;101580.78;;;7.92;100.00
20455;BME280;10386;54.314;10.022;2023-11-21T04:50:04;101584.88;;;8.00;100.00
20455;BME280;10386;54.314;10.022;2023-11-21T04:52:32;101586.63;;;8.01;100.00
20455;BME280;10386;54.314;10.022;2023-11-21T04:54:59;101593.50;;;7.90;100.00
20455;BME280;10386;54.314;10.022;2023-11-21T04:57:28;101594.50;;;8.06;100.00
20455;BME280;10386;54.314;10.022;2023-11-21T04:59:55;101602.41;;;8.10;100.00
20455;BME280;10386;54.314;10.022;2023-11-21T05:02:22;101610.22;;;7.98;100.00
20455;BME280;10386;54.314;10.022;2023-11-21T05:05:01;101617.91;;;7.88;100.00
20455;BME280;10386;54.314;10.022;2023-11-21T05:07:29;101620.69;;;8.05;100.00
20455;BME280;10386;54.314;10.022;2023-11-21T05:09:58;101633.31;;;8.05;100.00
20455;BME280;10386;54.314;10.022;2023-11-21T05:12:24;101645.22;;;8.01;100.00
20455;BME280;10386;54.314;10.022;2023-11-21T05:14:51;101654.13;;;8.03;100.00
20455;BME280;10386;54.314;10.022;2023-11-21T05:17:18;101659.13;;;7.93;100.00
20455;BME280;10386;54.314;10.022;2023-11-21T05:19:45;101671.25;;;8.03;100.00
20455;BME280;10386;54.314;10.022;2023-11-21T05:22:15;101668.56;;;8.03;100.00
20455;BME280;10386;54.314;10.022;2023-11-21T05:24:42;101681.47;;;7.97;100.00
20455;BME280;10386;54.314;10.022;2023-11-21T05:27:09;101681.41;;;7.98;100.00
20455;BME280;10386;54.314;10.022;2023-11-21T05:29:36;101690.47;;;7.97;100.00
20455;BME280;10386;54.314;10.022;2023-11-21T05:32:04;101696.53;;;8.02;100.00
20455;BME280;10386;54.314;10.022;2023-11-21T05:34:31;101704.13;;;7.94;100.00
20455;BME280;10386;54.314;10.022;2023-11-21T05:36:58;101712.16;;;7.96;100.00
20455;BME280;10386;54.314;10.022;2023-11-21T05:39:25;101718.38;;;7.98;100.00
20455;BME280;10386;54.314;10.022;2023-11-21T05:41:52;101712.31;;;7.93;100.00
20455;BME280;10386;54.314;10.022;2023-11-21T05:44:19;101725.25;;;7.86;100.00
20455;BME280;10386;54.314;10.022;2023-11-21T05:46:46;101731.16;;;7.94;100.00
20455;BME280;10386;54.314;10.022;2023-11-21T05:49:13;101725.75;;;7.94;100.00
20455;BME280;10386;54.314;10.022;2023-11-21T05:51:39;101735.09;;;7.87;100.00
20455;BME280;10386;54.314;10.022;2023-11-21T05:54:06;101735.69;;;7.94;100.00
20455;BME280;10386;54.314;10.022;2023-11-21T05:56:34;101750.16;;;7.93;100.00
20455;BME280;10386;54.314;10.022;2023-11-21T05:59:01;101758.41;;;7.90;100.00
20455;BME280;10386;54.314;10.022;2023-11-21T06:01:29;101765.94;;;7.83;100.00
20455;BME280;10386;54.314;10.022;2023-11-21T06:03:56;101774.50;;;7.73;100.00
20455;BME280;10386;54.314;10.022;2023-11-21T06:06:24;101770.91;;;7.92;100.00
20455;BME280;10386;54.314;10.022;2023-11-21T06:08:51;101784.50;;;7.91;100.00
20455;BME280;10386;54.314;10.022;2023-11-21T06:11:18;101792.81;;;7.86;100.00
20455;BME280;10386;54.314;10.022;2023-11-21T06:13:45;101790.53;;;7.77;100.00
20455;BME280;10386;54.314;10.022;2023-11-21T06:16:12;101814.44;;;7.86;100.00
20455;BME280;10386;54.314;10.022;2023-11-21T06:18:43;101810.81;;;7.87;100.00
20455;BME280;10386;54.314;10.022;2023-11-21T06:21:10;101821.81;;;7.83;100.00
20455;BME280;10386;54.314;10.022;2023-11-21T06:23:37;101825.69;;;7.77;100.00
20455;BME280;10386;54.314;10.022;2023-11-21T06:26:05;101837.56;;;7.73;100.00
20455;BME280;10386;54.314;10.022;2023-11-21T06:28:32;101842.31;;;7.68;100.00
20455;BME280;10386;54.314;10.022;2023-11-21T06:30:59;101843.50;;;7.81;100.00
20455;BME280;10386;54.314;10.022;2023-11-21T06:33:32;101843.56;;;7.80;100.00
20455;BME280;10386;54.314;10.022;2023-11-21T06:35:59;101848.84;;;7.83;100.00
20455;BME280;10386;54.314;10.022;2023-11-21T06:38:26;101845.41;;;7.79;100.00
20455;BME280;10386;54.314;10.022;2023-11-21T06:40:54;101857.91;;;7.82;100.00
20455;BME280;10386;54.314;10.022;2023-11-21T06:43:21;101877.84;;;7.79;100.00
20455;BME280;10386;54.314;10.022;2023-11-21T06:45:48;101870.53;;;7.81;100.00
20455;BME280;10386;54.314;10.022;2023-11-21T06:48:15;101877.97;;;7.76;100.00
20455;BME280;10386;54.314;10.022;2023-11-21T06:50:42;101891.53;;;7.75;100.00
20455;BME280;10386;54.314;10.022;2023-11-21T06:53:09;101902.56;;;7.70;100.00
20455;BME280;10386;54.314;10.022;2023-11-21T06:55:36;101910.44;;;7.55;100.00
20455;BME280;10386;54.314;10.022;2023-11-21T06:58:03;101915.34;;;7.87;100.00
20455;BME280;10386;54.314;10.022;2023-11-21T07:00:31;101917.59;;;7.77;100.00
20455;BME280;10386;54.314;10.022;2023-11-21T07:02:59;101925.75;;;7.76;100.00
20455;BME280;10386;54.314;10.022;2023-11-21T07:05:26;101930.75;;;7.85;100.00
20455;BME280;10386;54.314;10.022;2023-11-21T07:07:53;101923.97;;;7.75;100.00
20455;BME280;10386;54.314;10.022;2023-11-21T07:10:20;101936.94;;;7.67;100.00
20455;BME280;10386;54.314;10.022;2023-11-21T07:12:47;101948.53;;;7.70;100.00
20455;BME280;10386;54.314;10.022;2023-11-21T07:15:14;101947.75;;;7.67;100.00
20455;BME280;10386;54.314;10.022;2023-11-21T07:17:41;101946.50;;;7.75;100.00
20455;BME280;10386;54.314;10.022;2023-11-21T07:20:09;101950.75;;;7.81;100.00
20455;BME280;10386;54.314;10.022;2023-11-21T07:22:37;101949.34;;;7.72;100.00
20455;BME280;10386;54.314;10.022;2023-11-21T07:25:04;101949.19;;;7.75;100.00
20455;BME280;10386;54.314;10.022;2023-11-21T07:27:32;101955.34;;;7.79;100.00
20455;BME280;10386;54.314;10.022;2023-11-21T07:30:02;101957.78;;;7.85;100.00
20455;BME280;10386;54.314;10.022;2023-11-21T07:32:34;101964.34;;;7.79;100.00
20455;BME280;10386;54.314;10.022;2023-11-21T07:35:01;101972.06;;;7.88;100.00
20455;BME280;10386;54.314;10.022;2023-11-21T07:37:28;101974.53;;;7.73;100.00
20455;BME280;10386;54.314;10.022;2023-11-21T07:39:55;101990.56;;;7.77;100.00
20455;BME280;10386;54.314;10.022;2023-11-21T07:42:26;101989.09;;;7.69;100.00
20455;BME280;10386;54.314;10.022;2023-11-21T07:44:53;101994.34;;;7.73;100.00
20455;BME280;10386;54.314;10.022;2023-11-21T07:47:20;101989.88;;;7.72;100.00
20455;BME280;10386;54.314;10.022;2023-11-21T07:49:47;101996.66;;;7.82;100.00
20455;BME280;10386;54.314;10.022;2023-11-21T07:52:14;102001.81;;;7.88;100.00
20455;BME280;10386;54.314;10.022;2023-11-21T07:54:42;101998.16;;;7.89;100.00
20455;BME280;10386;54.314;10.022;2023-11-21T07:57:09;102003.44;;;7.92;100.00
20455;BME280;10386;54.314;10.022;2023-11-21T07:59:40;102007.00;;;7.93;100.00
20455;BME280;10386;54.314;10.022;2023-11-21T08:02:07;102020.59;;;7.91;100.00
20455;BME280;10386;54.314;10.022;2023-11-21T08:04:34;102011.56;;;7.92;100.00
20455;BME280;10386;54.314;10.022;2023-11-21T08:07:02;102017.91;;;7.91;100.00
20455;BME280;10386;54.314;10.022;2023-11-21T08:09:30;102028.34;;;8.00;100.00
20455;BME280;10386;54.314;10.022;2023-11-21T08:11:57;102027.38;;;8.01;100.00
20455;BME280;10386;54.314;10.022;2023-11-21T08:14:24;102037.13;;;8.05;100.00
20455;BME280;10386;54.314;10.022;2023-11-21T08:16:52;102045.69;;;7.95;100.00
20455;BME280;10386;54.314;10.022;2023-11-21T08:19:19;102062.16;;;8.10;100.00
20455;BME280;10386;54.314;10.022;2023-11-21T08:21:45;102074.22;;;8.02;100.00
20455;BME280;10386;54.314;10.022;2023-11-21T08:24:12;102070.53;;;8.04;100.00
20455;BME280;10386;54.314;10.022;2023-11-21T08:26:39;102080.53;;;8.02;100.00
20455;BME280;10386;54.314;10.022;2023-11-21T08:29:06;102083.41;;;7.98;100.00
20455;BME280;10386;54.314;10.022;2023-11-21T08:31:33;102095.66;;;7.85;100.00
20455;BME280;10386;54.314;10.022;2023-11-21T08:34:01;102105.53;;;7.86;100.00
20455;BME280;10386;54.314;10.022;2023-11-21T08:36:29;102102.53;;;7.93;100.00
20455;BME280;10386;54.314;10.022;2023-11-21T08:38:58;102100.81;;;7.91;100.00
20455;BME280;10386;54.314;10.022;2023-11-21T08:41:25;102108.63;;;7.98;100.00
20455;BME280;10386;54.314;10.022;2023-11-21T08:43:54;102118.00;;;7.90;100.00
20455;BME280;10386;54.314;10.022;2023-11-21T08:46:22;102123.41;;;7.90;100.00
20455;BME280;10386;54.314;10.022;2023-11-21T08:48:49;102129.63;;;7.92;100.00
20455;BME280;10386;54.314;10.022;2023-11-21T08:51:19;102129.09;;;8.05;100.00
20455;BME280;10386;54.314;10.022;2023-11-21T08:53:46;102131.38;;;7.93;100.00
20455;BME280;10386;54.314;10.022;2023-11-21T08:56:14;102136.41;;;8.02;100.00
20455;BME280;10386;54.314;10.022;2023-11-21T08:58:41;102136.38;;;8.03;100.00
20455;BME280;10386;54.314;10.022;2023-11-21T09:01:08;102145.19;;;8.08;100.00
20455;BME280;10386;54.314;10.022;2023-11-21T09:03:35;102164.53;;;7.98;100.00
20455;BME280;10386;54.314;10.022;2023-11-21T09:06:03;102163.78;;;7.94;100.00
20455;BME280;10386;54.314;10.022;2023-11-21T09:08:31;102163.34;;;8.05;100.00
20455;BME280;10386;54.314;10.022;2023-11-21T09:10:59;102163.81;;;8.16;100.00
20455;BME280;10386;54.314;10.022;2023-11-21T09:13:26;102163.75;;;8.19;100.00
20455;BME280;10386;54.314;10.022;2023-11-21T09:15:53;102172.41;;;8.26;100.00
20455;BME280;10386;54.314;10.022;2023-11-21T09:18:20;102175.03;;;8.28;100.00
20455;BME280;10386;54.314;10.022;2023-11-21T09:20:47;102180.41;;;8.29;100.00
20455;BME280;10386;54.314;10.022;2023-11-21T09:23:15;102188.91;;;8.21;100.00
20455;BME280;10386;54.314;10.022;2023-11-21T09:25:42;102196.91;;;8.23;100.00
20455;BME280;10386;54.314;10.022;2023-11-21T09:28:13;102181.47;;;8.25;100.00
20455;BME280;10386;54.314;10.022;2023-11-21T09:30:40;102197.00;;;8.21;100.00
20455;BME280;10386;54.314;10.022;2023-11-21T09:33:06;102212.09;;;8.03;100.00
20455;BME280;10386;54.314;10.022;2023-11-21T09:35:38;102217.63;;;8.00;100.00
20455;BME280;10386;54.314;10.022;2023-11-21T09:38:06;102222.97;;;8.02;100.00
20455;BME280;10386;54.314;10.022;2023-11-21T09:40:38;102219.16;;;7.84;100.00
20455;BME280;10386;54.314;10.022;2023-11-21T09:43:16;102230.56;;;7.92;100.00
20455;BME280;10386;54.314;10.022;2023-11-21T09:45:54;102239.03;;;8.06;100.00
20455;BME280;10386;54.314;10.022;2023-11-21T09:48:24;102240.00;;;8.04;100.00
20455;BME280;10386;54.314;10.022;2023-11-21T09:50:53;102237.72;;;8.16;100.00
20455;BME280;10386;54.314;10.022;2023-11-21T09:53:21;102237.16;;;8.31;100.00
20455;BME280;10386;54.314;10.022;2023-11-21T09:55:53;102235.38;;;8.30;100.00
20455;BME280;10386;54.314;10.022;2023-11-21T09:58:20;102234.19;;;8.37;100.00
20455;BME280;10386;54.314;10.022;2023-11-21T10:00:55;102232.44;;;8.36;100.00
20455;BME280;10386;54.314;10.022;2023-11-21T10:03:25;102246.41;;;8.25;100.00
20455;BME280;10386;54.314;10.022;2023-11-21T10:05:54;102265.72;;;8.15;100.00
20455;BME280;10386;54.314;10.022;2023-11-21T10:08:25;102261.03;;;8.20;100.00
20455;BME280;10386;54.314;10.022;2023-11-21T10:11:14;102271.03;;;8.18;100.00
20455;BME280;10386;54.314;10.022;2023-11-21T10:13:44;102277.44;;;8.16;100.00
20455;BME280;10386;54.314;10.022;2023-11-21T10:16:15;102281.94;;;8.15;100.00
20455;BME280;10386;54.314;10.022;2023-11-21T10:18:52;102282.22;;;8.08;100.00
20455;BME280;10386;54.314;10.022;2023-11-21T10:21:38;102282.31;;;8.06;100.00
20455;BME280;10386;54.314;10.022;2023-11-21T10:24:06;102291.03;;;7.90;100.00
20455;BME280;10386;54.314;10.022;2023-11-21T10:26:34;102293.59;;;7.94;100.00
20455;BME280;10386;54.314;10.022;2023-11-21T10:29:16;102291.00;;;7.91;100.00
20455;BME280;10386;54.314;10.022;2023-11-21T10:31:45;102295.38;;;7.94;100.00
20455;BME280;10386;54.314;10.022;2023-11-21T10:34:16;102305.50;;;7.89;100.00
20455;BME280;10386;54.314;10.022;2023-11-21T10:36:44;102299.22;;;7.88;100.00
20455;BME280;10386;54.314;10.022;2023-11-21T10:39:16;102302.31;;;7.78;100.00
20455;BME280;10386;54.314;10.022;2023-11-21T10:41:47;102305.41;;;7.67;100.00
20455;BME280;10386;54.314;10.022;2023-11-21T10:44:16;102300.50;;;7.54;100.00
20455;BME280;10386;54.314;10.022;2023-11-21T10:46:52;102316.97;;;7.71;100.00
20455;BME280;10386;54.314;10.022;2023-11-21T10:49:24;102317.06;;;7.69;100.00
20455;BME280;10386;54.314;10.022;2023-11-21T10:51:53;102323.41;;;7.68;100.00
20455;BME280;10386;54.314;10.022;2023-11-21T10:54:21;102322.03;;;7.55;100.00
20455;BME280;10386;54.314;10.022;2023-11-21T10:56:59;102335.56;;;7.55;100.00
20455;BME280;10386;54.314;10.022;2023-11-21T10:59:30;102333.28;;;7.43;100.00
20455;BME280;10386;54.314;10.022;2023-11-21T11:02:01;102334.06;;;7.47;100.00
20455;BME280;10386;54.314;10.022;2023-11-21T11:04:31;102333.75;;;7.56;100.00
20455;BME280;10386;54.314;10.022;2023-11-21T11:07:02;102330.16;;;7.55;100.00
20455;BME280;10386;54.314;10.022;2023-11-21T11:09:32;102335.22;;;7.64;100.00
20455;BME280;10386;54.314;10.022;2023-11-21T11:12:03;102336.44;;;7.56;100.00
20455;BME280;10386;54.314;10.022;2023-11-21T11:14:32;102337.66;;;7.72;100.00
20455;BME280;10386;54.314;10.022;2023-11-21T11:16:59;102338.56;;;7.72;100.00
20455;BME280;10386;54.314;10.022;2023-11-21T11:19:27;102339.66;;;7.67;100.00
20455;BME280;10386;54.314;10.022;2023-11-21T11:32:47;102342.56;;;7.61;100.00
20455;BME280;10386;54.314;10.022;2023-11-21T11:35:46;102342.09;;;7.48;100.00
20455;BME280;10386;54.314;10.022;2023-11-21T11:38:17;102343.97;;;7.46;100.00
20455;BME280;10386;54.314;10.022;2023-11-21T11:40:45;102340.81;;;7.60;100.00
20455;BME280;10386;54.314;10.022;2023-11-21T11:43:12;102340.19;;;7.52;100.00
20455;BME280;10386;54.314;10.022;2023-11-21T11:45:39;102342.00;;;7.51;100.00
20455;BME280;10386;54.314;10.022;2023-11-21T11:48:11;102349.88;;;7.57;100.00
20455;BME280;10386;54.314;10.022;2023-11-21T11:53:38;102357.97;;;7.59;100.00
20455;BME280;10386;54.314;10.022;2023-11-21T11:58:50;102358.31;;;7.48;100.00
20455;BME280;10386;54.314;10.022;2023-11-21T12:01:21;102366.81;;;7.62;100.00
20455;BME280;10386;54.314;10.022;2023-11-21T12:06:42;102359.22;;;7.49;100.00
20455;BME280;10386;54.314;10.022;2023-11-21T12:09:19;102374.91;;;7.64;100.00
20455;BME280;10386;54.314;10.022;2023-11-21T12:11:48;102371.16;;;7.68;100.00
20455;BME280;10386;54.314;10.022;2023-11-21T12:14:15;102385.22;;;7.51;100.00
20455;BME280;10386;54.314;10.022;2023-11-21T12:16:42;102383.25;;;7.56;100.00
20455;BME280;10386;54.314;10.022;2023-11-21T12:19:13;102393.69;;;7.68;100.00
20455;BME280;10386;54.314;10.022;2023-11-21T12:21:40;102392.31;;;7.81;100.00
20455;BME280;10386;54.314;10.022;2023-11-21T12:24:11;102396.91;;;7.78;100.00
20455;BME280;10386;54.314;10.022;2023-11-21T12:26:41;102396.31;;;7.70;100.00
20455;BME280;10386;54.314;10.022;2023-11-21T12:29:08;102396.31;;;7.70;100.00
20455;BME280;10386;54.314;10.022;2023-11-21T12:31:35;102401.50;;;7.76;100.00
20455;BME280;10386;54.314;10.022;2023-11-21T12:34:03;102411.69;;;7.68;100.00
20455;BME280;10386;54.314;10.022;2023-11-21T12:36:31;102411.69;;;7.68;100.00
20455;BME280;10386;54.314;10.022;2023-11-21T12:38:58;102410.50;;;7.76;100.00
20455;BME280;10386;54.314;10.022;2023-11-21T12:41:25;102408.84;;;7.72;100.00
20455;BME280;10386;54.314;10.022;2023-11-21T12:43:52;102418.38;;;7.56;100.00
20455;BME280;10386;54.314;10.022;2023-11-21T12:46:19;102425.94;;;7.73;100.00
20455;BME280;10386;54.314;10.022;2023-11-21T12:48:47;102420.75;;;7.67;100.00
20455;BME280;10386;54.314;10.022;2023-11-21T12:51:14;102439.06;;;7.57;100.00
20455;BME280;10386;54.314;10.022;2023-11-21T12:53:42;102436.47;;;7.54;100.00
20455;BME280;10386;54.314;10.022;2023-11-21T12:56:13;102434.38;;;7.64;100.00
20455;BME280;10386;54.314;10.022;2023-11-21T12:58:44;102438.88;;;7.63;100.00
20455;BME280;10386;54.314;10.022;2023-11-21T13:01:14;102441.53;;;7.65;100.00
20455;BME280;10386;54.314;10.022;2023-11-21T13:03:48;102444.94;;;7.71;100.00
20455;BME280;10386;54.314;10.022;2023-11-21T13:06:18;102454.22;;;7.63;100.00